Time;durP1;ratioP1;P1;durP2;ratioP2;P2;SDS_P1;SDS_P2;PMS_P1;PMS_P2;Temp;Humidity;BMP_temperature;BMP_pressure;BME280_temperature;BME280_humidity;BME280_pressure;Samples;Min_cycle;Max_cycle;Signal;HPM_P1;HPM_P2
2022/07/12 00:00:52;;;;;;;;;;;18.80;81.00;;;;;;5061352;28;20042;-73
2022/07/12 00:03:18;;;;;;;;;;;18.80;81.30;;;;;;5062522;28;19917;-73
2022/07/12 00:05:43;;;;;;;;;;;18.80;81.30;;;;;;5062616;28;19939;-73
2022/07/12 00:08:09;;;;;;;;;;;18.80;81.30;;;;;;5062388;28;19959;-73
2022/07/12 00:10:34;;;;;;;;;;;18.70;81.20;;;;;;5057778;28;19912;-73
2022/07/12 00:13:00;;;;;;;;;;;18.80;81.10;;;;;;5062805;28;19912;-74
2022/07/12 00:15:26;;;;;;;;;;;18.70;81.40;;;;;;5062912;28;20439;-73
2022/07/12 00:17:51;;;;;;;;;;;18.70;81.40;;;;;;5062659;28;19957;-73
2022/07/12 00:20:17;;;;;;;;;;;18.70;81.40;;;;;;5063096;28;19966;-73
2022/07/12 00:22:42;;;;;;;;;;;18.60;81.50;;;;;;5062716;28;20421;-73
2022/07/12 00:25:08;;;;;;;;;;;18.60;81.40;;;;;;5061433;28;20487;-73
2022/07/12 00:27:34;;;;;;;;;;;18.60;81.60;;;;;;5062587;28;20582;-73
2022/07/12 00:30:00;;;;;;;;;;;18.60;81.40;;;;;;5062239;28;20753;-74
2022/07/12 00:32:25;;;;;;;;;;;18.50;81.60;;;;;;5062351;28;20003;-73
2022/07/12 00:34:51;;;;;;;;;;;18.60;81.80;;;;;;5061278;28;19965;-73
2022/07/12 00:37:16;;;;;;;;;;;18.50;81.70;;;;;;5062513;28;19981;-73
2022/07/12 00:39:42;;;;;;;;;;;18.50;81.90;;;;;;5056103;28;19916;-73
2022/07/12 00:42:07;;;;;;;;;;;18.50;82.00;;;;;;5047273;28;20000;-73
2022/07/12 00:44:33;;;;;;;;;;;18.40;81.80;;;;;;5043823;28;19947;-73
2022/07/12 00:47:02;;;;;;;;;;;18.40;81.80;;;;;;5043673;28;19928;-73
2022/07/12 00:49:28;;;;;;;;;;;18.40;81.90;;;;;;5044168;28;20048;-73
2022/07/12 00:51:54;;;;;;;;;;;18.40;82.10;;;;;;5044250;28;19919;-73
2022/07/12 00:54:19;;;;;;;;;;;18.40;82.20;;;;;;5047139;28;19917;-73
2022/07/12 00:56:45;;;;;;;;;;;18.40;82.20;;;;;;5048545;28;19908;-73
2022/07/12 00:59:13;;;;;;;;;;;18.30;82.20;;;;;;5051903;28;20193;-73
2022/07/12 01:01:38;;;;;;;;;;;18.30;82.40;;;;;;5048119;28;19912;-73
2022/07/12 01:04:04;;;;;;;;;;;18.30;82.30;;;;;;5047739;28;19974;-73
2022/07/12 01:06:30;;;;;;;;;;;18.30;82.30;;;;;;5060682;28;19912;-73
2022/07/12 01:08:56;;;;;;;;;;;18.30;82.30;;;;;;5066023;28;19913;-73
2022/07/12 01:11:22;;;;;;;;;;;18.20;82.50;;;;;;5064120;28;19913;-73
2022/07/12 01:13:48;;;;;;;;;;;18.20;82.60;;;;;;5047909;28;20074;-73
2022/07/12 01:16:14;;;;;;;;;;;18.20;82.50;;;;;;5047053;28;20050;-73
2022/07/12 01:18:40;;;;;;;;;;;18.20;82.80;;;;;;5047479;28;20002;-73
2022/07/12 01:21:06;;;;;;;;;;;18.10;82.70;;;;;;5057646;28;19962;-73
2022/07/12 01:23:33;;;;;;;;;;;18.10;82.60;;;;;;5053712;28;19913;-73
2022/07/12 01:25:59;;;;;;;;;;;18.10;82.60;;;;;;5047465;28;19917;-73
2022/07/12 01:28:24;;;;;;;;;;;18.10;82.40;;;;;;5047574;28;19919;-73
2022/07/12 01:30:50;;;;;;;;;;;18.10;82.70;;;;;;5045517;28;20304;-73
2022/07/12 01:33:16;;;;;;;;;;;18.00;82.60;;;;;;5048829;28;19923;-73
2022/07/12 01:35:42;;;;;;;;;;;18.00;82.60;;;;;;5054678;28;20045;-73
2022/07/12 01:38:08;;;;;;;;;;;18.00;83.10;;;;;;5065611;28;20407;-73
2022/07/12 01:40:35;;;;;;;;;;;18.00;82.80;;;;;;5053516;28;19974;-73
2022/07/12 01:43:01;;;;;;;;;;;18.00;83.10;;;;;;5046884;28;19912;-73
2022/07/12 01:45:27;;;;;;;;;;;17.90;83.30;;;;;;5046893;28;19923;-73
2022/07/12 01:47:53;;;;;;;;;;;17.90;83.30;;;;;;5046922;28;20662;-73
2022/07/12 01:50:18;;;;;;;;;;;17.90;82.90;;;;;;5059064;28;19912;-73
2022/07/12 01:52:44;;;;;;;;;;;17.90;83.00;;;;;;5065423;28;20003;-73
2022/07/12 01:55:10;;;;;;;;;;;17.90;83.30;;;;;;5065283;28;19912;-73
2022/07/12 01:57:37;;;;;;;;;;;17.90;83.00;;;;;;5064804;28;20050;-73
2022/07/12 02:00:06;;;;;;;;;;;17.80;83.40;;;;;;5065341;28;19908;-73
2022/07/12 02:02:32;;;;;;;;;;;17.80;83.60;;;;;;5065154;28;20492;-73
2022/07/12 02:05:01;;;;;;;;;;;17.80;83.60;;;;;;5063929;28;19924;-73
2022/07/12 02:07:26;;;;;;;;;;;17.70;83.60;;;;;;5065094;28;20008;-73
2022/07/12 02:09:53;;;;;;;;;;;17.80;83.60;;;;;;5064948;28;19998;-73
2022/07/12 02:12:18;;;;;;;;;;;17.80;83.50;;;;;;5059257;28;19923;-73
2022/07/12 02:14:44;;;;;;;;;;;17.70;83.70;;;;;;5049663;28;19913;-73
2022/07/12 02:17:09;;;;;;;;;;;17.70;83.90;;;;;;5052477;28;19947;-73
2022/07/12 02:19:35;;;;;;;;;;;17.70;84.00;;;;;;5053087;28;19913;-73
2022/07/12 02:22:00;;;;;;;;;;;17.70;84.40;;;;;;5065560;28;19912;-73
2022/07/12 02:24:26;;;;;;;;;;;17.60;84.40;;;;;;5064995;28;20007;-73
2022/07/12 02:26:51;;;;;;;;;;;17.60;84.60;;;;;;5064290;28;19916;-73
2022/07/12 02:29:17;;;;;;;;;;;17.60;84.80;;;;;;5064656;28;19912;-73
2022/07/12 02:31:42;;;;;;;;;;;17.60;84.50;;;;;;5064616;28;20372;-73
2022/07/12 02:34:08;;;;;;;;;;;17.60;84.70;;;;;;5063741;28;19923;-73
2022/07/12 02:36:33;;;;;;;;;;;17.60;84.00;;;;;;5064361;28;19913;-73
2022/07/12 02:39:02;;;;;;;;;;;17.60;84.30;;;;;;5058175;28;19912;-73
2022/07/12 02:41:28;;;;;;;;;;;17.50;84.30;;;;;;5056486;28;20374;-73
2022/07/12 02:43:54;;;;;;;;;;;17.50;85.10;;;;;;5045131;28;19923;-73
2022/07/12 02:46:19;;;;;;;;;;;17.50;84.80;;;;;;5045658;28;19921;-73
2022/07/12 02:48:45;;;;;;;;;;;17.50;85.00;;;;;;5051816;28;20540;-73
2022/07/12 02:51:10;;;;;;;;;;;17.50;84.90;;;;;;5063803;28;19940;-73
2022/07/12 02:53:36;;;;;;;;;;;17.40;84.10;;;;;;5045979;28;19931;-73
2022/07/12 02:56:02;;;;;;;;;;;17.40;84.10;;;;;;5061951;28;19919;-73
2022/07/12 02:58:28;;;;;;;;;;;17.40;84.40;;;;;;5063927;28;19966;-73
2022/07/12 03:00:53;;;;;;;;;;;17.40;84.50;;;;;;5064063;28;19928;-73
2022/07/12 03:03:19;;;;;;;;;;;17.40;84.90;;;;;;5062403;28;19957;-73
2022/07/12 03:05:44;;;;;;;;;;;17.40;85.10;;;;;;5063879;28;20015;-73
2022/07/12 03:08:10;;;;;;;;;;;17.40;85.10;;;;;;5063458;28;20007;-73
2022/07/12 03:10:36;;;;;;;;;;;17.40;84.80;;;;;;5051414;28;19956;-73
2022/07/12 03:13:02;;;;;;;;;;;17.30;85.50;;;;;;5044074;28;20008;-73
2022/07/12 03:15:28;;;;;;;;;;;17.30;85.10;;;;;;5043941;28;20306;-73
2022/07/12 03:17:54;;;;;;;;;;;17.30;85.10;;;;;;5044975;28;19921;-72
2022/07/12 03:20:20;;;;;;;;;;;17.30;85.10;;;;;;5057555;28;19920;-73
2022/07/12 03:22:48;;;;;;;;;;;17.30;85.10;;;;;;5063942;28;19912;-73
2022/07/12 03:25:14;;;;;;;;;;;17.30;85.00;;;;;;5064126;28;20435;-73
2022/07/12 03:27:40;;;;;;;;;;;17.20;85.10;;;;;;5063441;28;19959;-73
2022/07/12 03:30:05;;;;;;;;;;;17.20;85.10;;;;;;5063295;28;19923;-73
2022/07/12 03:32:31;;;;;;;;;;;17.20;85.00;;;;;;5063482;28;19999;-73
2022/07/12 03:34:56;;;;;;;;;;;17.20;85.20;;;;;;5063415;28;20372;-73
2022/07/12 03:37:22;;;;;;;;;;;17.20;85.10;;;;;;5062969;28;19915;-73
2022/07/12 03:39:47;;;;;;;;;;;17.20;85.10;;;;;;5056196;28;19916;-73
2022/07/12 03:42:13;;;;;;;;;;;17.20;85.00;;;;;;5063305;28;19912;-73
2022/07/12 03:44:38;;;;;;;;;;;17.20;85.10;;;;;;5063464;28;19939;-73
2022/07/12 03:47:04;;;;;;;;;;;17.20;85.10;;;;;;5044517;28;19917;-73
2022/07/12 03:49:29;;;;;;;;;;;17.10;85.20;;;;;;5050980;28;19965;-73
2022/07/12 03:51:55;;;;;;;;;;;17.10;85.20;;;;;;5062996;28;19912;-73
2022/07/12 03:54:21;;;;;;;;;;;17.10;85.40;;;;;;5063418;28;20282;-73
2022/07/12 03:59:30;;;;;;;;;;;17.10;85.10;;;;;;5063111;28;20554;-73
2022/07/12 04:01:56;;;;;;;;;;;17.10;85.30;;;;;;5061751;28;20007;-73
2022/07/12 04:04:21;;;;;;;;;;;17.10;85.20;;;;;;5063404;28;19999;-73
2022/07/12 04:06:47;;;;;;;;;;;17.10;85.40;;;;;;5062768;28;19978;-73
2022/07/12 04:09:12;;;;;;;;;;;17.10;85.30;;;;;;5063227;28;20266;-73
2022/07/12 04:11:38;;;;;;;;;;;17.10;85.40;;;;;;5063662;28;19954;-73
2022/07/12 04:14:04;;;;;;;;;;;17.10;85.30;;;;;;5063406;28;20380;-73
2022/07/12 04:16:32;;;;;;;;;;;17.00;85.20;;;;;;5051232;28;19917;-73
2022/07/12 04:18:57;;;;;;;;;;;17.00;85.20;;;;;;5046694;28;19923;-73
2022/07/12 04:21:23;;;;;;;;;;;17.00;85.40;;;;;;5063462;28;19912;-73
2022/07/12 04:23:48;;;;;;;;;;;17.00;85.20;;;;;;5061361;28;20392;-73
2022/07/12 04:26:14;;;;;;;;;;;17.00;85.20;;;;;;5062679;28;19923;-73
2022/07/12 04:28:39;;;;;;;;;;;17.00;85.00;;;;;;5064515;28;19916;-73
2022/07/12 04:31:06;;;;;;;;;;;17.00;85.30;;;;;;5066971;28;20424;-73
2022/07/12 04:33:32;;;;;;;;;;;17.00;84.90;;;;;;5056402;28;20492;-73
2022/07/12 04:35:57;;;;;;;;;;;17.00;85.40;;;;;;5057408;28;19939;-73
2022/07/12 04:38:23;;;;;;;;;;;17.00;84.90;;;;;;5064050;28;19958;-73
2022/07/12 04:40:48;;;;;;;;;;;17.00;84.70;;;;;;5061737;28;19959;-73
2022/07/12 04:43:14;;;;;;;;;;;17.00;85.30;;;;;;5066792;28;19936;-73
2022/07/12 04:45:43;;;;;;;;;;;17.00;85.30;;;;;;5061935;28;20376;-73
2022/07/12 04:48:12;;;;;;;;;;;17.00;85.10;;;;;;5065351;28;19917;-73
2022/07/12 04:50:38;;;;;;;;;;;17.00;84.90;;;;;;5066689;28;19925;-72
2022/07/12 04:53:03;;;;;;;;;;;16.90;84.50;;;;;;5066631;28;19912;-73
2022/07/12 04:55:29;;;;;;;;;;;17.00;84.60;;;;;;5066657;28;19919;-73
2022/07/12 04:57:54;;;;;;;;;;;16.90;84.50;;;;;;5066019;28;19919;-73
2022/07/12 05:00:20;;;;;;;;;;;16.90;85.20;;;;;;5066191;28;20615;-73
2022/07/12 05:02:46;;;;;;;;;;;17.00;84.60;;;;;;5066195;28;19970;-73
2022/07/12 05:05:11;;;;;;;;;;;16.90;84.40;;;;;;5066403;28;19912;-73
2022/07/12 05:07:37;;;;;;;;;;;16.90;84.40;;;;;;5064816;28;19927;-73
2022/07/12 05:10:03;;;;;;;;;;;16.90;84.40;;;;;;5066634;28;19982;-73
2022/07/12 05:12:28;;;;;;;;;;;17.00;84.50;;;;;;5065102;28;19920;-73
2022/07/12 05:14:54;;;;;;;;;;;16.90;84.40;;;;;;5066357;28;19922;-73
2022/07/12 05:17:19;;;;;;;;;;;17.00;84.50;;;;;;5064766;28;19919;-73
2022/07/12 05:19:45;;;;;;;;;;;16.90;84.40;;;;;;5066211;28;19916;-73
2022/07/12 05:22:10;;;;;;;;;;;17.00;84.50;;;;;;5066270;28;19951;-73
2022/07/12 05:24:36;;;;;;;;;;;17.00;84.50;;;;;;5066000;28;19912;-73
2022/07/12 05:27:01;;;;;;;;;;;17.00;84.50;;;;;;5064478;28;19916;-73
2022/07/12 05:29:27;;;;;;;;;;;17.00;84.50;;;;;;5064581;28;19912;-73
2022/07/12 05:31:56;;;;;;;;;;;17.00;84.50;;;;;;5064484;28;19929;-73
2022/07/12 05:34:21;;;;;;;;;;;17.00;84.50;;;;;;5049224;28;20388;-73
2022/07/12 05:36:47;;;;;;;;;;;17.00;84.50;;;;;;5046233;28;19995;-72
2022/07/12 05:39:13;;;;;;;;;;;17.00;84.50;;;;;;5051823;28;19913;-73
2022/07/12 05:41:38;;;;;;;;;;;17.00;84.50;;;;;;5065458;28;19947;-73
2022/07/12 05:44:04;;;;;;;;;;;17.00;84.50;;;;;;5065100;28;19913;-72
2022/07/12 05:46:30;;;;;;;;;;;17.00;84.50;;;;;;5063966;28;19967;-73
2022/07/12 05:48:55;;;;;;;;;;;17.00;84.40;;;;;;5064318;28;20593;-73
2022/07/12 05:54:05;;;;;;;;;;;17.00;84.30;;;;;;5055969;28;20033;-72
2022/07/12 05:56:30;;;;;;;;;;;17.00;84.30;;;;;;5047232;28;19947;-73
2022/07/12 05:58:56;;;;;;;;;;;17.10;84.30;;;;;;5047280;28;19950;-72
2022/07/12 06:01:21;;;;;;;;;;;17.10;84.30;;;;;;5045651;28;20498;-73
2022/07/12 06:03:47;;;;;;;;;;;17.10;84.30;;;;;;5045944;28;20076;-73
2022/07/12 06:06:12;;;;;;;;;;;17.10;84.20;;;;;;5047784;28;19924;-73
2022/07/12 06:08:39;;;;;;;;;;;17.10;84.10;;;;;;5045597;28;19924;-73
2022/07/12 06:11:04;;;;;;;;;;;17.10;84.10;;;;;;5060661;28;19920;-73
2022/07/12 06:13:30;;;;;;;;;;;17.10;84.10;;;;;;5062036;28;20527;-73
2022/07/12 06:15:59;;;;;;;;;;;17.20;84.00;;;;;;5063778;28;19920;-73
2022/07/12 06:18:24;;;;;;;;;;;17.20;84.00;;;;;;5063548;28;19944;-72
2022/07/12 06:20:50;;;;;;;;;;;17.20;84.00;;;;;;5056352;28;19948;-73
2022/07/12 06:23:15;;;;;;;;;;;17.20;83.90;;;;;;5045441;28;19913;-73
2022/07/12 06:25:41;;;;;;;;;;;17.30;83.90;;;;;;5045610;28;20250;-73
2022/07/12 06:28:06;;;;;;;;;;;17.20;83.80;;;;;;5056744;28;19924;-73
2022/07/12 06:30:32;;;;;;;;;;;17.20;83.70;;;;;;5044674;28;19912;-73
2022/07/12 06:32:58;;;;;;;;;;;17.20;83.70;;;;;;5045513;28;19917;-73
2022/07/12 06:35:23;;;;;;;;;;;17.30;83.60;;;;;;5049014;28;20354;-73
2022/07/12 06:37:49;;;;;;;;;;;17.30;83.40;;;;;;5046965;28;20404;-73
2022/07/12 06:40:16;;;;;;;;;;;17.30;83.30;;;;;;5059182;28;20406;-73
2022/07/12 06:42:42;;;;;;;;;;;17.40;83.30;;;;;;5062171;28;19916;-73
2022/07/12 06:45:09;;;;;;;;;;;17.40;83.20;;;;;;5063247;28;20039;-73
2022/07/12 06:47:34;;;;;;;;;;;17.40;83.00;;;;;;5044593;28;19948;-73
2022/07/12 06:50:00;;;;;;;;;;;17.40;82.90;;;;;;5047548;28;19944;-73
2022/07/12 06:52:25;;;;;;;;;;;17.40;82.80;;;;;;5044655;28;19912;-73
2022/07/12 06:54:51;;;;;;;;;;;17.40;82.70;;;;;;5045538;28;20015;-72
2022/07/12 06:57:16;;;;;;;;;;;17.40;82.70;;;;;;5045397;28;19908;-73
2022/07/12 06:59:42;;;;;;;;;;;17.50;82.70;;;;;;5045915;28;20365;-73
2022/07/12 07:02:07;;;;;;;;;;;17.50;82.50;;;;;;5044303;28;19917;-73
2022/07/12 07:04:33;;;;;;;;;;;17.60;82.30;;;;;;5047749;28;20004;-73
2022/07/12 07:06:58;;;;;;;;;;;17.60;83.50;;;;;;5063412;28;19916;-73
2022/07/12 07:09:24;;;;;;;;;;;17.60;82.40;;;;;;5063684;28;19919;-73
2022/07/12 07:11:49;;;;;;;;;;;17.60;82.10;;;;;;5063638;28;19912;-73
2022/07/12 07:14:15;;;;;;;;;;;17.70;82.30;;;;;;5063566;28;19912;-73
2022/07/12 07:16:40;;;;;;;;;;;17.70;82.20;;;;;;5061725;28;19962;-73
2022/07/12 07:19:06;;;;;;;;;;;17.70;82.00;;;;;;5063461;28;20266;-73
2022/07/12 07:21:31;;;;;;;;;;;17.70;82.50;;;;;;5062284;28;19995;-73
2022/07/12 07:23:57;;;;;;;;;;;17.70;82.30;;;;;;5063119;28;20269;-73
2022/07/12 07:26:23;;;;;;;;;;;17.70;81.90;;;;;;5063163;28;19917;-73
2022/07/12 07:31:35;;;;;;;;;;;17.80;82.00;;;;;;5063740;28;20547;-73
2022/07/12 07:34:01;;;;;;;;;;;17.90;81.60;;;;;;5063184;28;20568;-73
2022/07/12 07:36:27;;;;;;;;;;;17.90;81.50;;;;;;5062975;28;19920;-73
2022/07/12 07:38:52;;;;;;;;;;;17.90;81.60;;;;;;5055712;28;20015;-73
2022/07/12 07:41:18;;;;;;;;;;;17.90;81.40;;;;;;5061224;28;20003;-73
2022/07/12 07:43:43;;;;;;;;;;;17.90;81.30;;;;;;5062931;28;19923;-73
2022/07/12 07:46:09;;;;;;;;;;;18.00;81.30;;;;;;5044495;28;19960;-73
2022/07/12 07:48:34;;;;;;;;;;;18.00;81.20;;;;;;5043227;28;19913;-73
2022/07/12 07:51:00;;;;;;;;;;;18.10;81.20;;;;;;5061989;28;19916;-73
2022/07/12 07:53:25;;;;;;;;;;;18.10;81.10;;;;;;5062992;28;20023;-73
2022/07/12 07:55:51;;;;;;;;;;;18.20;81.60;;;;;;5062954;28;19912;-74
2022/07/12 07:58:17;;;;;;;;;;;18.20;81.20;;;;;;5062607;28;20000;-73
2022/07/12 08:00:42;;;;;;;;;;;18.20;80.70;;;;;;5062908;28;19932;-73
2022/07/12 08:03:08;;;;;;;;;;;18.30;80.60;;;;;;5062941;28;19970;-73
2022/07/12 08:05:33;;;;;;;;;;;18.30;80.70;;;;;;5062771;28;20618;-73
2022/07/12 08:07:59;;;;;;;;;;;18.40;80.80;;;;;;5060826;28;19913;-73
2022/07/12 08:10:25;;;;;;;;;;;18.40;80.80;;;;;;5062674;28;19913;-74
2022/07/12 08:12:50;;;;;;;;;;;18.40;80.60;;;;;;5062559;28;20377;-74
2022/07/12 08:15:16;;;;;;;;;;;18.40;80.60;;;;;;5062125;28;20007;-74
2022/07/12 08:17:41;;;;;;;;;;;18.50;80.60;;;;;;5059435;28;19989;-73
2022/07/12 08:20:07;;;;;;;;;;;18.50;80.60;;;;;;5054652;28;19912;-74
2022/07/12 08:22:33;;;;;;;;;;;18.50;80.40;;;;;;5063114;28;19916;-73
2022/07/12 08:24:59;;;;;;;;;;;18.50;80.60;;;;;;5062940;28;19912;-73
2022/07/12 08:27:24;;;;;;;;;;;18.60;80.30;;;;;;5062546;28;19962;-74
2022/07/12 08:29:50;;;;;;;;;;;18.60;80.20;;;;;;5062466;28;19927;-73
2022/07/12 08:32:15;;;;;;;;;;;18.60;80.30;;;;;;5049099;28;19917;-74
2022/07/12 08:34:42;;;;;;;;;;;18.70;80.20;;;;;;5044148;28;20477;-73
2022/07/12 08:37:07;;;;;;;;;;;18.70;80.00;;;;;;5062055;28;19991;-73
2022/07/12 08:39:33;;;;;;;;;;;18.70;80.40;;;;;;5052572;28;20014;-73
2022/07/12 08:41:59;;;;;;;;;;;18.80;79.70;;;;;;5062989;28;19927;-73
2022/07/12 08:44:25;;;;;;;;;;;18.80;80.00;;;;;;5062984;28;19979;-74
2022/07/12 08:46:52;;;;;;;;;;;18.80;79.70;;;;;;5062593;28;19917;-73
2022/07/12 08:49:18;;;;;;;;;;;18.90;79.60;;;;;;5062480;28;20163;-73
2022/07/12 08:51:43;;;;;;;;;;;18.90;79.40;;;;;;5062802;28;20028;-74
2022/07/12 08:54:10;;;;;;;;;;;18.90;79.60;;;;;;5062595;28;20055;-73
2022/07/12 08:56:37;;;;;;;;;;;18.90;79.50;;;;;;5061842;28;20686;-74
2022/07/12 08:59:12;;;;;;;;;;;19.00;79.50;;;;;;5062557;28;19909;-73
2022/07/12 09:01:38;;;;;;;;;;;19.10;79.50;;;;;;5062306;28;19924;-73
2022/07/12 09:04:18;;;;;;;;;;;19.10;79.70;;;;;;5062828;28;19913;-74
2022/07/12 09:06:43;;;;;;;;;;;19.10;79.30;;;;;;5047959;28;19935;-73
2022/07/12 09:09:09;;;;;;;;;;;19.20;79.20;;;;;;5044603;28;20515;-74
2022/07/12 09:11:36;;;;;;;;;;;19.30;79.40;;;;;;5050446;28;19920;-73
2022/07/12 09:14:02;;;;;;;;;;;19.30;79.30;;;;;;5044330;28;20358;-73
2022/07/12 09:16:28;;;;;;;;;;;19.40;79.00;;;;;;5065665;28;19995;-73
2022/07/12 09:19:12;;;;;;;;;;;19.40;78.80;;;;;;5065760;28;19923;-74
2022/07/12 09:21:43;;;;;;;;;;;19.40;79.20;;;;;;5081036;28;19943;-73
2022/07/12 09:24:10;;;;;;;;;;;19.50;78.80;;;;;;5065807;28;19913;-73
2022/07/12 09:26:36;;;;;;;;;;;19.60;78.70;;;;;;5065420;28;19924;-73
2022/07/12 09:29:09;;;;;;;;;;;19.60;78.80;;;;;;5065684;28;19935;-73
2022/07/12 09:36:06;;;;;;;;;;;19.70;78.60;;;;;;5065921;28;19920;-74
2022/07/12 09:37:12;;;;;;;;;;;19.90;78.20;;;;;;5047083;28;19924;-73
2022/07/12 09:39:38;;;;;;;;;;;20.00;77.90;;;;;;5054836;28;20360;-73
2022/07/12 09:42:04;;;;;;;;;;;20.10;78.40;;;;;;5065937;28;19919;-73
2022/07/12 09:44:30;;;;;;;;;;;20.10;78.10;;;;;;5065655;28;19912;-73
2022/07/12 09:46:59;;;;;;;;;;;20.10;77.70;;;;;;5060573;28;19920;-73
2022/07/12 09:49:26;;;;;;;;;;;20.10;78.30;;;;;;5065573;28;19974;-73
2022/07/12 09:51:54;;;;;;;;;;;20.10;78.80;;;;;;5046513;28;19913;-73
2022/07/12 09:54:23;;;;;;;;;;;20.10;78.10;;;;;;5060664;28;20392;-73
2022/07/12 09:56:51;;;;;;;;;;;20.20;78.30;;;;;;5065027;28;19912;-73
2022/07/12 09:59:19;;;;;;;;;;;20.30;78.30;;;;;;5065378;28;20708;-73
2022/07/12 10:01:45;;;;;;;;;;;20.30;77.80;;;;;;5046805;28;20021;-73
2022/07/12 10:04:13;;;;;;;;;;;20.40;77.80;;;;;;5046757;28;19919;-73
2022/07/12 10:06:40;;;;;;;;;;;20.50;77.40;;;;;;5061183;28;19917;-74
2022/07/12 10:09:06;;;;;;;;;;;20.60;77.00;;;;;;5047247;28;19967;-73
2022/07/12 10:11:32;;;;;;;;;;;20.70;76.80;;;;;;5065315;28;20003;-74
2022/07/12 10:13:57;;;;;;;;;;;20.80;76.70;;;;;;5065174;28;20634;-74
2022/07/12 10:16:26;;;;;;;;;;;20.90;76.70;;;;;;5065037;28;19966;-74
2022/07/12 10:19:11;;;;;;;;;;;20.90;76.70;;;;;;5065257;28;19919;-74
2022/07/12 10:21:39;;;;;;;;;;;21.00;76.90;;;;;;5080810;28;19946;-74
2022/07/12 10:24:24;;;;;;;;;;;21.10;76.80;;;;;;5055210;28;20016;-74
2022/07/12 10:26:50;;;;;;;;;;;21.10;76.40;;;;;;5053041;28;20697;-74
2022/07/12 10:29:19;;;;;;;;;;;21.20;76.40;;;;;;5046966;28;19913;-74
2022/07/12 10:31:45;;;;;;;;;;;21.30;76.30;;;;;;5065466;28;19948;-74
2022/07/12 10:34:21;;;;;;;;;;;21.30;76.60;;;;;;5065306;28;19950;-74
2022/07/12 10:36:55;;;;;;;;;;;21.30;76.80;;;;;;5064721;28;19916;-74
2022/07/12 10:39:21;;;;;;;;;;;21.40;76.80;;;;;;5056119;28;19913;-74
2022/07/12 10:42:02;;;;;;;;;;;21.60;76.80;;;;;;5063267;28;19912;-74
2022/07/12 10:44:33;;;;;;;;;;;21.70;76.70;;;;;;5064402;28;19951;-74
2022/07/12 10:47:00;;;;;;;;;;;21.80;76.80;;;;;;5061956;28;20424;-74
2022/07/12 10:49:25;;;;;;;;;;;21.90;76.60;;;;;;5064814;28;19913;-74
2022/07/12 10:52:20;;;;;;;;;;;22.00;76.70;;;;;;5064491;28;19912;-74
2022/07/12 10:54:47;;;;;;;;;;;22.10;76.40;;;;;;5045186;28;20712;-74
2022/07/12 10:57:13;;;;;;;;;;;22.20;76.50;;;;;;5044263;28;20301;-74
2022/07/12 10:59:38;;;;;;;;;;;22.40;76.60;;;;;;5045990;28;19917;-74
2022/07/12 11:02:05;;;;;;;;;;;22.50;76.30;;;;;;5045844;28;19913;-74
2022/07/12 11:04:30;;;;;;;;;;;22.70;76.50;;;;;;5045721;28;19919;-74
2022/07/12 11:06:57;;;;;;;;;;;22.80;77.40;;;;;;5063746;28;19964;-73
2022/07/12 11:09:23;;;;;;;;;;;22.90;76.10;;;;;;5047995;28;20055;-74
2022/07/12 11:11:50;;;;;;;;;;;23.10;77.30;;;;;;5063976;28;19912;-73
2022/07/12 11:14:33;;;;;;;;;;;23.20;76.60;;;;;;5063653;28;19916;-74
2022/07/12 11:16:59;;;;;;;;;;;23.30;76.40;;;;;;5062430;28;19920;-74
2022/07/12 11:19:26;;;;;;;;;;;23.40;76.30;;;;;;5062740;28;19912;-74
2022/07/12 11:21:58;;;;;;;;;;;23.50;75.90;;;;;;5062223;28;20287;-74
2022/07/12 11:24:27;;;;;;;;;;;23.70;75.80;;;;;;5063050;28;20356;-74
2022/07/12 11:26:53;;;;;;;;;;;23.80;75.50;;;;;;5063316;28;19927;-74
2022/07/12 11:29:19;;;;;;;;;;;23.90;75.20;;;;;;5062396;28;19912;-74
2022/07/12 11:31:45;;;;;;;;;;;24.00;75.70;;;;;;5062244;28;19909;-74
2022/07/12 11:34:20;;;;;;;;;;;24.10;75.90;;;;;;5061869;28;20375;-74
2022/07/12 11:36:46;;;;;;;;;;;24.20;75.80;;;;;;5061537;28;19912;-74
2022/07/12 11:39:12;;;;;;;;;;;24.30;75.40;;;;;;5054717;28;19959;-74
2022/07/12 11:41:38;;;;;;;;;;;24.40;75.30;;;;;;5063367;28;19980;-74
2022/07/12 11:44:03;;;;;;;;;;;24.50;75.30;;;;;;5063317;28;19913;-74
2022/07/12 11:46:29;;;;;;;;;;;24.60;75.10;;;;;;5062564;28;19978;-74
2022/07/12 11:48:55;;;;;;;;;;;24.70;74.20;;;;;;5062990;28;19919;-74
2022/07/12 11:51:26;;;;;;;;;;;24.70;74.80;;;;;;5063164;28;19913;-74
2022/07/12 11:53:53;;;;;;;;;;;24.90;75.10;;;;;;5063337;28;19912;-74
2022/07/12 11:56:28;;;;;;;;;;;24.90;74.60;;;;;;5061328;28;20535;-74
2022/07/12 11:58:57;;;;;;;;;;;25.00;73.50;;;;;;5062920;28;19912;-74
2022/07/12 12:01:22;;;;;;;;;;;25.10;73.40;;;;;;5063180;28;19912;-75
2022/07/12 12:03:49;;;;;;;;;;;25.10;74.00;;;;;;5062894;28;19951;-74
2022/07/12 12:06:15;;;;;;;;;;;25.30;73.80;;;;;;5062800;28;20011;-74
2022/07/12 12:08:41;;;;;;;;;;;25.30;73.60;;;;;;5062975;28;20397;-74
2022/07/12 12:11:06;;;;;;;;;;;25.40;72.60;;;;;;5046190;28;19919;-74
2022/07/12 12:13:32;;;;;;;;;;;25.50;73.00;;;;;;5044759;28;19913;-74
2022/07/12 12:16:01;;;;;;;;;;;25.60;73.00;;;;;;5044258;28;19912;-74
2022/07/12 12:18:28;;;;;;;;;;;25.70;72.20;;;;;;5043652;28;19943;-74
2022/07/12 12:20:57;;;;;;;;;;;25.80;71.70;;;;;;5060038;28;20013;-74
2022/07/12 12:23:23;;;;;;;;;;;25.90;71.70;;;;;;5058238;28;19912;-74
2022/07/12 12:25:49;;;;;;;;;;;25.90;71.10;;;;;;5055010;28;19927;-74
2022/07/12 12:28:15;;;;;;;;;;;26.00;71.20;;;;;;5059277;28;19940;-74
2022/07/12 12:30:52;;;;;;;;;;;26.10;71.90;;;;;;5052056;28;19931;-73
2022/07/12 12:33:34;;;;;;;;;;;26.20;72.20;;;;;;5044253;28;19913;-74
2022/07/12 12:36:10;;;;;;;;;;;26.30;71.80;;;;;;5052343;28;19944;-74
2022/07/12 12:38:36;;;;;;;;;;;26.40;71.10;;;;;;5054517;28;19913;-74
2022/07/12 12:41:01;;;;;;;;;;;26.40;71.20;;;;;;5061596;28;19919;-74
2022/07/12 12:43:27;;;;;;;;;;;26.40;70.90;;;;;;5061414;28;20544;-74
2022/07/12 12:45:56;;;;;;;;;;;26.50;71.10;;;;;;5061575;28;19947;-74
2022/07/12 12:48:23;;;;;;;;;;;26.40;71.20;;;;;;5061472;28;19912;-74
2022/07/12 12:50:50;;;;;;;;;;;26.50;71.50;;;;;;5052875;28;19913;-74
2022/07/12 12:53:16;;;;;;;;;;;26.50;72.00;;;;;;5046598;28;19939;-74
2022/07/12 12:55:44;;;;;;;;;;;26.50;71.60;;;;;;5047293;28;20468;-74
2022/07/12 12:58:09;;;;;;;;;;;26.50;71.60;;;;;;5046809;28;19975;-74
2022/07/12 13:00:38;;;;;;;;;;;26.60;71.50;;;;;;5047162;28;20634;-75
2022/07/12 13:03:13;;;;;;;;;;;26.70;71.70;;;;;;5047520;28;20035;-74
2022/07/12 13:05:39;;;;;;;;;;;26.70;71.30;;;;;;5065165;28;19921;-74
2022/07/12 13:08:05;;;;;;;;;;;26.80;70.60;;;;;;5064230;28;20409;-75
2022/07/12 13:10:31;;;;;;;;;;;26.90;70.20;;;;;;5065382;28;20676;-74
2022/07/12 13:12:57;;;;;;;;;;;26.90;69.60;;;;;;5063915;28;19912;-74
2022/07/12 13:15:22;;;;;;;;;;;27.00;68.70;;;;;;5065130;28;19912;-74
2022/07/12 13:17:48;;;;;;;;;;;27.10;68.40;;;;;;5065270;28;19970;-74
2022/07/12 13:20:14;;;;;;;;;;;27.20;68.70;;;;;;5053613;28;19948;-74
2022/07/12 13:22:40;;;;;;;;;;;27.30;69.10;;;;;;5046864;28;19923;-74
2022/07/12 13:25:07;;;;;;;;;;;27.40;68.80;;;;;;5045351;28;20012;-75
2022/07/12 13:27:33;;;;;;;;;;;27.40;67.90;;;;;;5044498;28;19952;-75
2022/07/12 13:29:58;;;;;;;;;;;27.50;68.70;;;;;;5045086;28;20523;-74
2022/07/12 13:32:24;;;;;;;;;;;27.50;68.50;;;;;;5045259;28;19919;-74
2022/07/12 13:34:50;;;;;;;;;;;27.50;68.20;;;;;;5045940;28;20039;-74
2022/07/12 13:37:15;;;;;;;;;;;27.50;67.60;;;;;;5064733;28;20359;-75
2022/07/12 13:42:25;;;;;;;;;;;27.60;69.10;;;;;;5062767;28;19923;-75
2022/07/12 13:44:51;;;;;;;;;;;27.60;67.90;;;;;;5046511;28;19917;-75
2022/07/12 13:47:18;;;;;;;;;;;27.70;68.00;;;;;;5064389;28;19916;-75
2022/07/12 13:49:44;;;;;;;;;;;27.70;67.40;;;;;;5054336;28;19919;-75
2022/07/12 13:52:09;;;;;;;;;;;27.80;67.30;;;;;;5064492;28;19912;-74
2022/07/12 13:54:35;;;;;;;;;;;27.90;67.40;;;;;;5064565;28;19912;-75
2022/07/12 13:57:01;;;;;;;;;;;27.90;67.20;;;;;;5064356;28;19912;-75
2022/07/12 13:59:26;;;;;;;;;;;28.00;67.00;;;;;;5064773;28;20686;-75
2022/07/12 14:01:52;;;;;;;;;;;28.00;66.70;;;;;;5063631;28;19912;-75
2022/07/12 14:04:17;;;;;;;;;;;28.00;66.00;;;;;;5064795;28;19999;-74
2022/07/12 14:06:43;;;;;;;;;;;28.10;65.70;;;;;;5064285;28;20342;-75
2022/07/12 14:09:08;;;;;;;;;;;28.10;66.20;;;;;;5064107;28;19913;-75
2022/07/12 14:11:34;;;;;;;;;;;28.10;66.20;;;;;;5080338;28;19959;-75
2022/07/12 14:13:59;;;;;;;;;;;28.10;66.00;;;;;;5063416;28;20701;-75
2022/07/12 14:16:25;;;;;;;;;;;28.10;66.20;;;;;;5064605;28;19978;-75
2022/07/12 14:18:50;;;;;;;;;;;28.10;66.30;;;;;;5060246;28;19913;-75
2022/07/12 14:21:16;;;;;;;;;;;28.10;66.10;;;;;;5064792;28;19935;-75
2022/07/12 14:23:41;;;;;;;;;;;28.20;66.10;;;;;;5064708;28;19948;-75
2022/07/12 14:26:07;;;;;;;;;;;28.30;65.10;;;;;;5052620;28;19924;-75